Flight Track Log - Related Links

Times and Time Zones

All times are in EDT time to prevent confusion due to time zone crossing. See the AMF1324 flight status page for this flight to view local times or setup timezone preferences in your user account.

Time Position Orientation Groundspeed Altitude Reporting Facility
EDT Latitude Longitude Course Direction KTS MPH feet Rate Location/Type
Wed 09:02:15 AM 42.2272 -76.0328 296° West 175 201 4,500  Level New York Center
Wed 09:03:15 AM 42.2478 -76.0906 296° West 181 208 7,500 2,521 Climbing New York Center
Wed 09:04:14 AM 42.2658 -76.1508 292° West 176 203 9,500 2,250 Climbing New York Center
Wed 09:05:15 AM 42.2900 -76.2144 297° West 176 203 12,000 754 Climbing New York Center
Wed 09:07:41 AM 42.3492 -76.4108 292° West 244 281 12,100 29 Climbing Cleveland Center
Wed 09:08:43 AM 42.3756 -76.4967 293° West 244 281 12,100 -97 Level Cleveland Center
Wed 09:09:45 AM 42.4036 -76.5792 295° West 244 281 11,900 -98 Descending Cleveland Center
Wed 09:10:46 AM 42.4311 -76.6622 294° West 244 281 11,900  Level Cleveland Center
Wed 09:11:48 AM 42.4597 -76.7436 295° West 242 278 11,900  Level Cleveland Center
Wed 09:12:50 AM 42.4842 -76.8267 292° West 242 278 11,900  Level Cleveland Center
Wed 09:13:52 AM 42.5175 -76.9272 294° West 242 278 11,900  Level Cleveland Center
Wed 09:14:54 AM 42.5433 -77.0097 293° West 241 277 11,900 48 Level Cleveland Center
Wed 09:15:56 AM 42.5683 -77.0953 292° West 242 278 12,000 48 Climbing Cleveland Center
Wed 09:16:58 AM 42.5961 -77.1783 294° West 242 278 12,000  Level Cleveland Center
Wed 09:18:00 AM 42.6275 -77.2594 298° West 243 280 12,000  Level Cleveland Center
Wed 09:19:02 AM 42.6603 -77.3378 300° West 243 280 12,000  Level Cleveland Center
Wed 09:20:04 AM 42.6961 -77.4358 296° West 242 278 12,000  Level Cleveland Center
Wed 09:21:06 AM 42.7342 -77.5086 305° West 242 278 12,000  Level Cleveland Center
Wed 09:21:34 AM 42.7558 -77.5428 311° West 234 269 12,000 -97 Level Cleveland Center
Wed 09:22:08 AM 42.7736 -77.5786 304° West 241 277 11,900 -250 Descending Cleveland Center
Wed 09:22:22 AM 42.7847 -77.6081 297° West 245 282 11,800 -689 Descending Cleveland Center
Wed 09:23:09 AM 42.8028 -77.6606 295° West 242 278 11,200 -984 Descending Cleveland Center
Wed 09:23:23 AM 42.8150 -77.6939 297° West 248 285 10,800 -1,258 Descending Cleveland Center
Wed 09:24:11 AM 42.8403 -77.7567 299° West 242 278 9,900 -1,082 Descending Cleveland Center
Wed 09:24:24 AM 42.8433 -77.7764 282° West 240 276 9,700 -968 Descending Cleveland Center
Wed 09:25:13 AM 42.8497 -77.8464 277° West 250 288 8,900 -1,027 Descending Cleveland Center
Wed 09:26:15 AM 42.8606 -77.9406 279° West 245 282 7,800 -1,065 Descending Cleveland Center
Wed 09:27:17 AM 42.8739 -78.0336 281° West 242 278 6,700 -968 Descending Cleveland Center
Wed 09:28:19 AM 42.8853 -78.1222 280° West 232 267 5,800 -919 Descending Cleveland Center
Wed 09:29:21 AM 42.8950 -78.2133 278° West 232 267 4,800 -871 Descending Cleveland Center
Wed 09:30:23 AM 42.9267 -78.2897 300° West 222 255 4,000 -435 Descending Cleveland Center
Wed 09:31:25 AM 42.9550 -78.3567 300° West 210 242 3,900  Descending Cleveland Center
Wed 09:32:27 AM 42.9814 -78.4244 298° West 205 236 4,000 -532 Climbing Cleveland Center
Wed 09:33:29 AM 43.0133 -78.4833 307° West 198 228 2,800 -823 Descending Cleveland Center
Wed 09:34:31 AM 43.0453 -78.5397 308° West 193 222 2,300 -242 Descending Cleveland Center
Wed 09:35:33 AM 43.0353 -78.5969 257° West 178 205 2,300  Level Cleveland Center
Wed 09:36:08 AM 43.0167 -78.6333 235° Southwest 159 183 2,300 -253 Level Buffalo TRACON
Wed 09:37:08 AM 42.9833 -78.6667 216° Southwest 140 161 1,900 -550 Descending Buffalo TRACON
Wed 09:38:08 AM 42.9667 -78.7000 236° Southwest 121 139 1,200 -700 Descending Buffalo TRACON
Wed 09:40:00 AM 42.9333 -78.7167 233° Southwest  Level FlightAware Approximate

Login

Don't have an account? Register now (free) for customized features, flight alerts, and more!